Carlton, Kansas
Current Conditions -  °F | °C
As of 5:53 AM on Monday 20 Oct 2014 (Local Time) from KSLN Reporting Station
Haze Haze  
Wind Chill: 49°   Ceiling: Unl
Heat Index: 49°   Visibility: 6mi
Dew Point: 46°   Wind: 3mph
Humidity: 90%   Direction: 300°WNW
Pressure: 30.03"   Gusts: NA
Location:  38.6868°N, 97.4052°W
Report Text: KSLN 201053Z AUTO 30003KT 6SM BR CLR 09/08 A3003 RMK AO2 SLP167 T00940078
Loading
Personal Weather Stations






























Interactive Weather Map
Tropical Storm Tracking
New forecast layout! Learn more

10-Day Weather Forecast

Advertisements
Track Severe Weather on mobile